Clay Township, Michigan
Current Conditions -  °F | °C
As of 11:55 AM on Thursday 23 Oct 2014 (Local Time) from KMTC Reporting Station
Few Clouds Few Clouds  
Wind Chill: 52°   Ceiling: Unl
Heat Index: 52°   Visibility: 12mi
Dew Point: 40°   Wind: 5mph
Humidity: 64%   Direction: 10°N
Pressure: 30.21"   Gusts: NA
Location:  42.6418°N, 82.5677°W
Report Text: KMTC 231555Z 01004KT 12SM FEW025 FEW220 11/04 A3021 RMK SLP244 T01090043
Loading
Personal Weather Stations






























Interactive Weather Map
Tropical Storm Tracking
New forecast layout! Learn more

10-Day Weather Forecast

Advertisements
Track Severe Weather on mobile